createdAt,value
2023-08-11T00:01:24.821Z,14.14
2023-08-11T00:03:51.416Z,14.15
2023-08-11T00:06:18.126Z,14.14
2023-08-11T00:08:44.886Z,14.10
2023-08-11T00:11:13.428Z,14.07
2023-08-11T00:13:40.017Z,14.02
2023-08-11T00:16:08.304Z,13.96
2023-08-11T00:18:35.000Z,13.93
2023-08-11T00:21:01.648Z,13.95
2023-08-11T00:23:28.227Z,13.96
2023-08-11T00:25:54.889Z,13.99
2023-08-11T00:28:21.536Z,13.97
2023-08-11T00:30:48.263Z,13.96
2023-08-11T00:33:14.892Z,13.92
2023-08-11T00:35:43.287Z,13.88
2023-08-11T00:38:09.906Z,13.80
2023-08-11T00:40:37.933Z,13.81
2023-08-11T00:43:04.630Z,13.76
2023-08-11T00:45:31.489Z,13.75
2023-08-11T00:47:58.445Z,13.70
2023-08-11T00:50:26.578Z,13.68
2023-08-11T00:52:53.760Z,13.70
2023-08-11T00:55:20.765Z,13.61
2023-08-11T00:57:47.760Z,13.64
2023-08-11T01:00:16.082Z,13.60
2023-08-11T01:02:44.528Z,13.55
2023-08-11T01:05:13.127Z,13.57
2023-08-11T01:07:48.231Z,13.57
2023-08-11T01:10:29.677Z,13.54
2023-08-11T01:13:25.262Z,13.53
2023-08-11T01:15:59.730Z,13.48
2023-08-11T01:18:29.361Z,13.53
2023-08-11T01:21:00.740Z,13.53
2023-08-11T01:23:30.564Z,13.45
2023-08-11T01:29:45.794Z,13.45
2023-08-11T01:32:13.140Z,13.43
2023-08-11T01:34:39.717Z,13.37
2023-08-11T01:37:06.597Z,13.32
2023-08-11T01:39:34.226Z,13.38
2023-08-11T01:42:00.981Z,13.43
2023-08-11T01:44:27.927Z,13.34
2023-08-11T01:46:57.738Z,13.28
2023-08-11T01:49:26.571Z,13.24
2023-08-11T01:51:53.829Z,13.16
2023-08-11T01:54:20.689Z,13.13
2023-08-11T01:56:47.993Z,13.18
2023-08-11T01:59:16.559Z,13.13
2023-08-11T02:01:43.532Z,13.08
2023-08-11T02:04:10.173Z,13.05
2023-08-11T02:06:40.830Z,13.05
2023-08-11T02:09:10.057Z,13.07
2023-08-11T02:11:38.426Z,13.14
2023-08-11T02:14:06.163Z,13.20
2023-08-11T02:16:34.711Z,13.08
2023-08-11T02:19:01.481Z,13.04
2023-08-11T02:21:29.196Z,12.99
2023-08-11T02:23:56.013Z,12.97
2023-08-11T02:26:23.575Z,12.99
2023-08-11T02:28:50.609Z,13.00
2023-08-11T02:31:17.283Z,12.96
2023-08-11T02:33:44.695Z,12.90
2023-08-11T02:36:11.472Z,12.88
2023-08-11T02:38:38.223Z,12.92
2023-08-11T02:41:04.875Z,12.97
2023-08-11T02:43:31.511Z,12.84
2023-08-11T02:45:58.162Z,12.82
2023-08-11T02:48:24.896Z,12.89
2023-08-11T02:50:51.492Z,12.89
2023-08-11T02:53:18.081Z,12.91
2023-08-11T02:55:44.869Z,12.81
2023-08-11T02:58:12.706Z,12.74
2023-08-11T03:00:39.294Z,12.80
2023-08-11T03:03:06.004Z,12.78
2023-08-11T03:05:32.868Z,12.76
2023-08-11T03:07:59.653Z,12.78
2023-08-11T03:10:26.313Z,12.73
2023-08-11T03:12:53.012Z,12.77
2023-08-11T03:15:20.436Z,12.76
2023-08-11T03:17:47.591Z,12.71
2023-08-11T03:20:16.134Z,12.71
2023-08-11T03:22:45.648Z,12.70
2023-08-11T03:25:15.239Z,12.64
2023-08-11T03:27:44.156Z,12.69
2023-08-11T03:30:16.501Z,12.72
2023-08-11T03:32:47.268Z,12.56
2023-08-11T03:35:15.665Z,12.50
2023-08-11T03:37:42.371Z,12.46
2023-08-11T03:40:14.007Z,12.53
2023-08-11T03:42:44.744Z,12.54
2023-08-11T03:45:13.725Z,12.52
2023-08-11T03:47:42.650Z,12.51
2023-08-11T03:50:14.991Z,12.51
2023-08-11T03:52:41.616Z,12.43
2023-08-11T03:55:10.730Z,12.45
2023-08-11T03:57:39.097Z,12.49
2023-08-11T04:00:10.950Z,12.49
2023-08-11T04:02:40.166Z,12.47
2023-08-11T04:05:11.264Z,12.43
2023-08-11T04:07:38.442Z,12.47
2023-08-11T04:10:05.875Z,12.47
2023-08-11T04:12:33.151Z,12.45
2023-08-11T04:15:00.208Z,12.41
2023-08-11T04:17:27.743Z,12.43
2023-08-11T04:19:57.823Z,12.45
2023-08-11T04:22:38.216Z,12.52
2023-08-11T04:25:06.858Z,12.54
2023-08-11T04:27:33.469Z,12.50
2023-08-11T04:30:00.410Z,12.51
2023-08-11T04:32:27.280Z,12.51
2023-08-11T04:34:53.875Z,12.53
2023-08-11T04:37:21.231Z,12.54
2023-08-11T04:39:47.893Z,12.56
2023-08-11T04:42:14.819Z,12.57
2023-08-11T04:44:41.748Z,12.58
2023-08-11T04:47:08.401Z,12.59
2023-08-11T04:49:36.392Z,12.64
2023-08-11T04:52:03.032Z,12.66
2023-08-11T04:54:29.715Z,12.67
2023-08-11T04:56:56.818Z,12.67
2023-08-11T04:59:23.422Z,12.67
2023-08-11T05:01:50.530Z,12.71
2023-08-11T05:04:17.202Z,12.75
2023-08-11T05:06:44.242Z,12.74
2023-08-11T05:09:10.921Z,12.72
2023-08-11T05:11:38.465Z,12.75
2023-08-11T05:14:05.073Z,12.80
2023-08-11T05:16:31.706Z,12.88
2023-08-11T05:18:58.328Z,12.93
2023-08-11T05:21:24.917Z,12.94
2023-08-11T05:23:51.766Z,12.97
2023-08-11T05:26:18.748Z,13.04
2023-08-11T05:28:45.318Z,13.07
2023-08-11T05:31:12.110Z,13.08
2023-08-11T05:33:39.415Z,13.17
2023-08-11T05:36:06.068Z,13.23
2023-08-11T05:38:32.623Z,13.22
2023-08-11T05:40:59.207Z,13.23
2023-08-11T05:43:25.839Z,13.36
2023-08-11T05:45:52.466Z,13.42
2023-08-11T05:48:19.056Z,13.48
2023-08-11T05:50:46.300Z,13.52
2023-08-11T05:53:13.482Z,13.57
2023-08-11T05:55:40.331Z,13.51
2023-08-11T05:58:07.035Z,13.50
2023-08-11T06:00:33.723Z,13.60
2023-08-11T06:03:00.304Z,13.79
2023-08-11T06:05:27.625Z,13.89
2023-08-11T06:08:05.130Z,14.03
2023-08-11T06:10:33.318Z,14.20
2023-08-11T06:13:00.224Z,14.28
2023-08-11T06:15:27.043Z,14.39
2023-08-11T06:17:53.736Z,14.52
2023-08-11T06:20:29.997Z,14.65
2023-08-11T06:23:01.659Z,14.82
2023-08-11T06:25:28.881Z,14.95
2023-08-11T06:27:55.454Z,15.06
2023-08-11T06:30:22.093Z,15.20
2023-08-11T06:32:48.768Z,15.31
2023-08-11T06:35:15.373Z,15.44
2023-08-11T06:37:42.045Z,15.52
2023-08-11T06:40:10.040Z,15.63
2023-08-11T06:42:36.700Z,15.73
2023-08-11T06:45:08.477Z,16.00
2023-08-11T06:47:36.027Z,16.18
2023-08-11T06:50:04.290Z,16.34
2023-08-11T06:52:30.948Z,16.48
2023-08-11T06:54:57.572Z,16.64
2023-08-11T06:57:24.298Z,16.81
2023-08-11T06:59:50.896Z,16.92
2023-08-11T07:02:17.532Z,17.04
2023-08-11T07:04:44.209Z,17.19
2023-08-11T07:07:11.059Z,17.31
2023-08-11T07:09:37.783Z,17.44
2023-08-11T07:12:04.649Z,17.56
2023-08-11T07:14:31.299Z,17.73
2023-08-11T07:16:57.948Z,17.92
2023-08-11T07:19:26.474Z,18.10
2023-08-11T07:21:53.055Z,18.21
2023-08-11T07:24:19.678Z,18.31
2023-08-11T07:26:46.239Z,18.50
2023-08-11T07:29:12.908Z,18.64
2023-08-11T07:31:40.703Z,18.79
2023-08-11T07:34:07.343Z,18.93
2023-08-11T07:36:33.964Z,19.10
2023-08-11T07:39:16.923Z,19.25
2023-08-11T07:41:47.107Z,19.41
2023-08-11T07:44:13.704Z,19.55
2023-08-11T07:46:40.395Z,19.65
2023-08-11T07:49:07.119Z,19.80
2023-08-11T07:51:33.829Z,19.93
2023-08-11T07:54:00.507Z,20.04
2023-08-11T07:56:27.824Z,20.17
2023-08-11T07:58:54.427Z,20.30
2023-08-11T08:01:21.146Z,20.42
2023-08-11T08:03:47.858Z,20.52
2023-08-11T08:06:15.640Z,20.67
2023-08-11T08:08:42.367Z,20.81
2023-08-11T08:11:09.461Z,20.95
2023-08-11T08:13:36.358Z,21.11
2023-08-11T08:16:03.077Z,21.26
2023-08-11T08:18:29.794Z,21.42
2023-08-11T08:20:56.465Z,21.55
2023-08-11T08:23:23.400Z,21.68
2023-08-11T08:25:50.078Z,21.70
2023-08-11T08:28:16.638Z,21.82
2023-08-11T08:30:43.379Z,22.04
2023-08-11T08:33:10.203Z,22.20
2023-08-11T08:35:37.384Z,22.36
2023-08-11T08:38:04.700Z,22.50
2023-08-11T08:40:35.917Z,22.67
2023-08-11T08:43:08.810Z,22.79
2023-08-11T08:45:38.207Z,22.94
2023-08-11T08:48:09.324Z,22.96
2023-08-11T08:50:37.645Z,23.06
2023-08-11T08:53:04.436Z,23.26
2023-08-11T08:55:30.994Z,23.42
2023-08-11T08:57:57.580Z,23.53
2023-08-11T09:00:24.858Z,23.58
2023-08-11T09:02:52.472Z,23.71
2023-08-11T09:05:19.536Z,23.84
2023-08-11T09:07:46.094Z,23.98
2023-08-11T09:10:12.776Z,24.09
2023-08-11T09:12:39.395Z,24.10
2023-08-11T09:15:10.385Z,24.14
2023-08-11T09:17:38.561Z,24.20
2023-08-11T09:20:05.756Z,24.35
2023-08-11T09:22:37.197Z,24.47
2023-08-11T09:25:05.001Z,24.63
2023-08-11T09:27:32.379Z,24.71
2023-08-11T09:29:59.184Z,24.81
2023-08-11T09:32:27.160Z,24.94
2023-08-11T09:34:54.199Z,25.00
2023-08-11T09:37:20.900Z,25.02
2023-08-11T09:39:50.481Z,25.14
2023-08-11T09:42:19.697Z,25.31
2023-08-11T09:44:46.299Z,25.42
2023-08-11T09:47:16.369Z,25.50
2023-08-11T09:49:47.926Z,25.61
2023-08-11T09:52:15.734Z,25.71
2023-08-11T09:54:44.995Z,25.76
2023-08-11T09:57:14.266Z,25.74
2023-08-11T09:59:45.708Z,25.75
2023-08-11T10:02:18.065Z,25.80
2023-08-11T10:04:58.504Z,25.84
2023-08-11T10:07:35.291Z,25.94
2023-08-11T10:10:11.401Z,26.12
2023-08-11T10:12:41.797Z,26.27
2023-08-11T10:15:11.677Z,26.48
2023-08-11T10:17:39.573Z,26.63
2023-08-11T10:20:08.505Z,26.52
2023-08-11T10:22:35.261Z,26.81
2023-08-11T10:25:05.550Z,26.98
2023-08-11T10:27:32.610Z,26.99
2023-08-11T10:29:59.905Z,27.13
2023-08-11T10:32:32.546Z,27.18
2023-08-11T10:34:59.174Z,27.42
2023-08-11T10:37:37.004Z,27.42
2023-08-11T10:40:06.290Z,27.53
2023-08-11T10:42:33.476Z,27.70
2023-08-11T10:45:11.678Z,27.51
2023-08-11T10:48:00.037Z,27.54
2023-08-11T10:50:28.068Z,27.55
2023-08-11T10:53:20.918Z,27.69
2023-08-11T10:56:00.511Z,27.93
2023-08-11T10:58:30.261Z,27.87
2023-08-11T11:00:58.167Z,27.84
2023-08-11T11:03:24.845Z,28.04
2023-08-11T11:05:51.491Z,28.23
2023-08-11T11:08:18.139Z,28.38
2023-08-11T11:10:50.529Z,28.27
2023-08-11T11:13:18.213Z,28.12
2023-08-11T11:15:44.942Z,28.36
2023-08-11T11:18:11.670Z,28.68
2023-08-11T11:20:38.962Z,28.83
2023-08-11T11:23:06.475Z,28.95
2023-08-11T11:25:33.124Z,28.91
2023-08-11T11:27:59.985Z,29.09
2023-08-11T11:30:26.694Z,29.01
2023-08-11T11:32:53.596Z,29.09
2023-08-11T11:35:20.330Z,29.04
2023-08-11T11:37:47.441Z,29.12
2023-08-11T11:40:14.928Z,29.26
2023-08-11T11:42:42.523Z,29.40
2023-08-11T11:45:10.878Z,29.61
2023-08-11T11:47:38.085Z,29.58
2023-08-11T11:50:08.846Z,29.55
2023-08-11T11:52:37.746Z,29.79
2023-08-11T11:55:07.279Z,29.89
2023-08-11T11:57:34.841Z,30.02
2023-08-11T12:00:04.159Z,30.14
2023-08-11T12:02:40.264Z,30.06
2023-08-11T12:05:09.216Z,29.98
2023-08-11T12:07:37.544Z,29.91
2023-08-11T12:10:07.798Z,29.79
2023-08-11T12:12:34.557Z,29.85
2023-08-11T12:15:03.332Z,29.83
2023-08-11T12:17:37.267Z,29.90
2023-08-11T12:20:07.760Z,30.07
2023-08-11T12:22:34.757Z,30.10
2023-08-11T12:25:01.313Z,30.29
2023-08-11T12:27:29.438Z,30.53
2023-08-11T12:29:56.107Z,30.82
2023-08-11T12:32:22.741Z,30.73
2023-08-11T12:34:49.309Z,30.75
2023-08-11T12:37:16.051Z,30.83
2023-08-11T12:39:42.634Z,30.96
2023-08-11T12:42:11.154Z,30.57
2023-08-11T12:44:39.983Z,30.88
2023-08-11T12:47:06.842Z,30.65
2023-08-11T12:49:33.436Z,30.76
2023-08-11T12:52:00.053Z,30.81
2023-08-11T12:54:26.603Z,30.78
2023-08-11T12:56:53.149Z,30.76
2023-08-11T12:59:19.715Z,30.93
2023-08-11T13:01:46.293Z,31.27
2023-08-11T13:04:12.902Z,31.34
2023-08-11T13:06:40.742Z,31.52
2023-08-11T13:09:08.611Z,31.69
2023-08-11T13:11:35.257Z,31.83
2023-08-11T13:14:02.693Z,31.89
2023-08-11T13:16:29.829Z,31.99
2023-08-11T13:18:56.459Z,31.82
2023-08-11T13:21:23.572Z,31.76
2023-08-11T13:23:50.371Z,31.87
2023-08-11T13:26:17.327Z,31.90
2023-08-11T13:28:43.960Z,31.90
2023-08-11T13:31:10.658Z,32.08
2023-08-11T13:33:37.297Z,31.95
2023-08-11T13:36:05.753Z,31.81
2023-08-11T13:38:32.712Z,31.97
2023-08-11T13:40:59.351Z,31.99
2023-08-11T13:43:25.916Z,32.12
2023-08-11T13:45:54.268Z,31.51
2023-08-11T13:48:24.503Z,31.70
2023-08-11T13:50:51.694Z,31.94
2023-08-11T13:53:18.362Z,31.75
2023-08-11T13:55:44.982Z,32.02
2023-08-11T13:58:11.537Z,31.91
2023-08-11T14:00:38.135Z,31.80
2023-08-11T14:03:05.081Z,31.70
2023-08-11T14:05:31.661Z,31.69
2023-08-11T14:07:58.262Z,32.01
2023-08-11T14:10:25.262Z,32.16
2023-08-11T14:12:51.842Z,32.32
2023-08-11T14:15:18.406Z,32.55
2023-08-11T14:17:45.035Z,32.38
2023-08-11T14:20:12.168Z,32.53
2023-08-11T14:22:38.808Z,32.48
2023-08-11T14:25:05.876Z,32.55
2023-08-11T14:27:32.479Z,32.66
2023-08-11T14:29:59.065Z,32.80
2023-08-11T14:32:26.751Z,33.25
2023-08-11T14:34:53.808Z,33.37
2023-08-11T14:37:21.864Z,33.43
2023-08-11T14:39:48.702Z,33.16
2023-08-11T14:42:15.534Z,32.97
2023-08-11T14:44:42.561Z,33.10
2023-08-11T14:47:14.150Z,33.18
2023-08-11T14:49:41.600Z,33.09
2023-08-11T14:52:08.479Z,33.34
2023-08-11T14:54:35.387Z,33.11
2023-08-11T14:57:01.965Z,33.17
2023-08-11T14:59:28.599Z,33.13
2023-08-11T15:01:55.159Z,33.43
2023-08-11T15:04:21.961Z,33.55
2023-08-11T15:06:48.494Z,33.38
2023-08-11T15:09:15.046Z,33.18
2023-08-11T15:11:41.693Z,33.39
2023-08-11T15:14:11.508Z,33.28
2023-08-11T15:16:38.326Z,32.98
2023-08-11T15:19:04.969Z,33.11
2023-08-11T15:21:31.591Z,33.07
2023-08-11T15:23:58.362Z,33.19
2023-08-11T15:26:26.263Z,32.50
2023-08-11T15:28:53.442Z,31.88
2023-08-11T15:31:20.373Z,31.28
2023-08-11T15:33:50.406Z,30.82
2023-08-11T15:36:17.045Z,29.83
2023-08-11T15:38:43.735Z,29.28
2023-08-11T15:41:10.793Z,28.95
2023-08-11T15:43:37.453Z,28.36
2023-08-11T15:46:04.626Z,28.02
2023-08-11T15:48:31.357Z,27.76
2023-08-11T15:50:57.924Z,27.63
2023-08-11T15:53:24.531Z,27.42
2023-08-11T15:55:52.017Z,27.17
2023-08-11T15:58:21.900Z,26.94
2023-08-11T16:00:49.257Z,26.86
2023-08-11T16:03:16.273Z,26.76
2023-08-11T16:05:43.977Z,26.70
2023-08-11T16:08:10.546Z,26.49
2023-08-11T16:10:40.898Z,26.27
2023-08-11T16:13:10.370Z,26.16
2023-08-11T16:15:37.621Z,26.01
2023-08-11T16:18:10.583Z,26.02
2023-08-11T16:20:37.595Z,25.93
2023-08-11T16:23:05.372Z,25.79
2023-08-11T16:25:32.483Z,25.75
2023-08-11T16:27:59.117Z,25.76
2023-08-11T16:30:26.220Z,25.68
2023-08-11T16:32:55.007Z,25.52
2023-08-11T16:35:22.436Z,25.32
2023-08-11T16:37:49.053Z,25.24
2023-08-11T16:40:15.664Z,25.11
2023-08-11T16:42:42.346Z,25.04
2023-08-11T16:45:09.490Z,24.94
2023-08-11T16:47:36.285Z,24.87
2023-08-11T16:50:02.929Z,24.88
2023-08-11T16:52:29.544Z,24.78
2023-08-11T16:54:56.632Z,24.67
2023-08-11T16:57:23.397Z,24.57
2023-08-11T16:59:50.095Z,24.55
2023-08-11T17:02:16.774Z,24.53
2023-08-11T17:04:43.389Z,24.43
2023-08-11T17:07:10.702Z,24.40
2023-08-11T17:09:37.923Z,24.35
2023-08-11T17:12:04.699Z,24.25
2023-08-11T17:14:31.268Z,24.15
2023-08-11T17:16:57.919Z,24.12
2023-08-11T17:19:24.698Z,24.08
2023-08-11T17:21:51.456Z,24.03
2023-08-11T17:24:18.060Z,23.95
2023-08-11T17:26:44.812Z,23.86
2023-08-11T17:29:11.401Z,23.75
2023-08-11T17:31:40.379Z,23.74
2023-08-11T17:34:07.421Z,23.67
2023-08-11T17:36:34.985Z,23.64
2023-08-11T17:39:01.548Z,23.59
2023-08-11T17:41:28.237Z,23.51
2023-08-11T17:43:56.306Z,23.42
2023-08-11T17:46:23.429Z,23.31
2023-08-11T17:48:53.387Z,23.26
2023-08-11T17:51:21.679Z,23.20
2023-08-11T17:53:59.716Z,23.14
2023-08-11T17:56:37.845Z,23.09
2023-08-11T17:59:05.223Z,23.02
2023-08-11T18:01:32.433Z,22.96
2023-08-11T18:04:05.298Z,22.89
2023-08-11T18:06:35.019Z,22.82
2023-08-11T18:09:02.164Z,22.77
2023-08-11T18:11:29.426Z,22.70
2023-08-11T18:13:56.729Z,22.62
2023-08-11T18:16:24.110Z,22.57
2023-08-11T18:18:52.052Z,22.53
2023-08-11T18:21:21.015Z,22.49
2023-08-11T18:23:48.520Z,22.42
2023-08-11T18:26:16.497Z,22.35
2023-08-11T18:28:43.451Z,22.30
2023-08-11T18:31:10.190Z,22.24
2023-08-11T18:33:36.831Z,22.21
2023-08-11T18:36:03.506Z,21.98
2023-08-11T18:38:32.299Z,21.91
2023-08-11T18:41:00.365Z,21.78
2023-08-11T18:43:26.988Z,21.73
2023-08-11T18:45:53.586Z,21.65
2023-08-11T18:48:20.143Z,21.40
2023-08-11T18:50:46.958Z,21.22
2023-08-11T18:53:14.024Z,21.21
2023-08-11T18:55:40.571Z,21.21
2023-08-11T18:58:07.827Z,21.06
2023-08-11T19:00:34.454Z,21.00
2023-08-11T19:03:01.127Z,20.91
2023-08-11T19:05:28.527Z,20.84
2023-08-11T19:07:55.920Z,20.66
2023-08-11T19:10:28.756Z,20.53
2023-08-11T19:12:55.367Z,20.48
2023-08-11T19:15:22.008Z,20.38
2023-08-11T19:17:48.632Z,20.24
2023-08-11T19:20:15.266Z,20.27
2023-08-11T19:22:41.958Z,20.27
2023-08-11T19:25:08.875Z,20.38
2023-08-11T19:27:35.624Z,20.40
2023-08-11T19:30:02.251Z,20.33
2023-08-11T19:32:28.970Z,20.23
2023-08-11T19:34:56.939Z,20.16
2023-08-11T19:37:23.666Z,20.04
2023-08-11T19:39:50.326Z,19.96
2023-08-11T19:42:16.916Z,19.87
2023-08-11T19:44:44.468Z,19.74
2023-08-11T19:47:11.032Z,19.72
2023-08-11T19:49:37.793Z,19.70
2023-08-11T19:52:04.566Z,19.68
2023-08-11T19:54:31.234Z,19.61
2023-08-11T19:56:57.840Z,19.65
2023-08-11T19:59:24.493Z,19.64
2023-08-11T20:01:51.235Z,19.55
2023-08-11T20:04:20.026Z,19.52
2023-08-11T20:06:46.733Z,19.48
2023-08-11T20:09:13.852Z,19.42
2023-08-11T20:11:40.422Z,19.38
2023-08-11T20:14:07.000Z,19.28
2023-08-11T20:16:33.692Z,19.29
2023-08-11T20:19:00.341Z,19.25
2023-08-11T20:21:27.013Z,19.28
2023-08-11T20:23:53.553Z,19.17
2023-08-11T20:26:20.152Z,19.07
2023-08-11T20:28:47.849Z,19.03
2023-08-11T20:31:15.196Z,19.08
2023-08-11T20:33:41.863Z,19.04
2023-08-11T20:36:08.494Z,19.00
2023-08-11T20:38:37.261Z,18.94
2023-08-11T20:41:05.751Z,18.86
2023-08-11T20:43:32.401Z,18.81
2023-08-11T20:45:58.969Z,18.73
2023-08-11T20:48:25.583Z,18.63
2023-08-11T20:50:58.170Z,18.56
2023-08-11T20:53:24.732Z,18.52
2023-08-11T20:55:51.398Z,18.51
2023-08-11T20:58:17.990Z,18.43
2023-08-11T21:00:46.200Z,18.44
2023-08-11T21:03:12.849Z,18.44
2023-08-11T21:05:42.166Z,18.43
2023-08-11T21:08:12.345Z,18.37
2023-08-11T21:10:46.276Z,18.33
2023-08-11T21:13:15.217Z,18.35
2023-08-11T21:15:42.377Z,18.35
2023-08-11T21:18:10.283Z,18.25
2023-08-11T21:20:37.400Z,18.23
2023-08-11T21:23:04.994Z,18.20
2023-08-11T21:25:32.902Z,18.19
2023-08-11T21:27:59.685Z,18.16
2023-08-11T21:30:26.612Z,18.16
2023-08-11T21:32:53.338Z,18.12
2023-08-11T21:35:22.896Z,18.04
2023-08-11T21:37:49.798Z,18.03
2023-08-11T21:40:16.608Z,17.98
2023-08-11T21:42:43.837Z,17.90
2023-08-11T21:45:11.071Z,17.91
2023-08-11T21:47:38.337Z,17.94
2023-08-11T21:50:05.534Z,17.91
2023-08-11T21:52:32.114Z,17.79
2023-08-11T21:54:58.721Z,17.77
2023-08-11T21:57:25.343Z,17.69
2023-08-11T21:59:52.118Z,17.71
2023-08-11T22:02:18.772Z,17.77
2023-08-11T22:04:48.417Z,17.68
2023-08-11T22:07:15.754Z,17.65
2023-08-11T22:09:42.917Z,17.67
2023-08-11T22:12:11.962Z,17.66
2023-08-11T22:14:39.226Z,17.60
2023-08-11T22:17:06.170Z,17.56
2023-08-11T22:19:36.094Z,17.53
2023-08-11T22:22:04.116Z,17.50
2023-08-11T22:24:39.908Z,17.40
2023-08-11T22:27:09.485Z,17.42
2023-08-11T22:29:36.489Z,17.44
2023-08-11T22:32:04.257Z,17.44
2023-08-11T22:34:31.229Z,17.48
2023-08-11T22:36:57.921Z,17.46
2023-08-11T22:39:24.521Z,17.35
2023-08-11T22:41:51.173Z,17.41
2023-08-11T22:44:17.721Z,17.42
2023-08-11T22:46:44.420Z,17.28
2023-08-11T22:49:10.976Z,17.24
2023-08-11T22:51:37.542Z,17.25
2023-08-11T22:54:04.182Z,17.30
2023-08-11T22:56:30.735Z,17.29
2023-08-11T22:58:57.322Z,17.28
2023-08-11T23:01:23.885Z,17.24
2023-08-11T23:03:50.529Z,17.26
2023-08-11T23:06:17.148Z,17.23
2023-08-11T23:08:43.758Z,17.23
2023-08-11T23:11:10.404Z,17.19
2023-08-11T23:13:37.022Z,17.17
2023-08-11T23:16:04.114Z,17.10
2023-08-11T23:18:30.761Z,17.08
2023-08-11T23:20:57.297Z,17.04
2023-08-11T23:23:23.900Z,16.99
2023-08-11T23:25:51.191Z,17.01
2023-08-11T23:28:20.120Z,17.03
2023-08-11T23:30:46.686Z,17.05
2023-08-11T23:33:14.009Z,17.09
2023-08-11T23:35:40.636Z,17.02
2023-08-11T23:38:07.436Z,17.01
2023-08-11T23:40:33.986Z,16.94
2023-08-11T23:43:00.587Z,16.88
2023-08-11T23:45:27.176Z,16.88
2023-08-11T23:47:53.938Z,16.90
2023-08-11T23:50:20.557Z,16.90
2023-08-11T23:52:47.300Z,16.92
2023-08-11T23:55:14.755Z,16.86
2023-08-11T23:57:41.910Z,16.87
